Terminal Aerodrome Forecast
Issued by NWS Atlanta, GA

Home | Current Version | Previous Version | Text Only | Print | Product List | Glossary On
Versions: 1 2 3 4 5 6 7 8 9 10 11 12 13 14 15 16 17 18 19 20 21 22 23 24 25 26 27 28 29 30 31 32 33 34 35 36 37 38
000
FTAK31 PAJN 280600 AAB
TAFAHN
TAF AMD
PAHN 280626Z 2806/2906 09008KT P6SM -RA BKN010 BKN025 OVC050
      TEMPO 2806/2810 09009G19KT 6SM -RA BR OVC010
     FM281300 12010G20KT P6SM -RA SCT015 OVC025
     FM290000 12010G20KT P6SM VCSH SCT015 BKN025 OVC050
      AMD LTD TO CLD VIS AND WIND=

USA.gov is the U.S. government's official web portal to all federal, state and local government web resources and services.